createdAt,value
2022-08-05T00:00:16.009Z,0.00
2022-08-05T00:01:20.998Z,0.00
2022-08-05T00:02:16.987Z,0.00
2022-08-05T00:03:15.449Z,0.00
2022-08-05T00:04:14.123Z,0.00
2022-08-05T00:06:03.006Z,0.00
2022-08-05T00:06:28.949Z,0.00
2022-08-05T00:07:26.764Z,0.00
2022-08-05T00:08:32.827Z,0.00
2022-08-05T00:09:19.739Z,0.00
2022-08-05T00:10:18.692Z,0.00
2022-08-05T00:11:20.656Z,0.00
2022-08-05T00:12:15.635Z,0.00
2022-08-05T00:13:18.757Z,0.00
2022-08-05T00:14:18.476Z,0.00
2022-08-05T00:15:57.993Z,0.00
2022-08-05T00:16:16.591Z,0.00
2022-08-05T00:17:18.812Z,0.00
2022-08-05T00:18:19.827Z,0.00
2022-08-05T00:19:17.101Z,0.00
2022-08-05T00:20:20.264Z,0.00
2022-08-05T00:21:15.974Z,0.00
2022-08-05T00:22:18.092Z,0.00
2022-08-05T00:23:17.902Z,0.00
2022-08-05T00:24:18.978Z,0.00
2022-08-05T00:25:17.306Z,0.00
2022-08-05T00:26:17.687Z,0.00
2022-08-05T00:27:16.728Z,0.00
2022-08-05T00:28:16.717Z,0.00
2022-08-05T00:29:16.551Z,0.00
2022-08-05T00:30:14.864Z,0.00
2022-08-05T00:31:53.635Z,0.00
2022-08-05T00:32:14.914Z,0.00
2022-08-05T00:34:56.987Z,0.00
2022-08-05T00:34:57.051Z,0.00
2022-08-05T00:35:15.221Z,0.00
2022-08-05T00:37:09.036Z,0.00
2022-08-05T00:37:16.312Z,0.00
2022-08-05T00:38:16.467Z,0.00
2022-08-05T00:39:13.854Z,0.00
2022-08-05T00:40:27.864Z,0.00
2022-08-05T00:41:19.794Z,0.00
2022-08-05T00:42:31.917Z,0.00
2022-08-05T00:43:15.384Z,0.00
2022-08-05T00:44:17.805Z,0.00
2022-08-05T00:45:15.670Z,0.00
2022-08-05T00:46:19.807Z,0.00
2022-08-05T00:47:16.390Z,0.00
2022-08-05T00:48:15.211Z,0.00
2022-08-05T00:49:15.180Z,0.00
2022-08-05T00:50:13.467Z,0.00
2022-08-05T00:51:51.051Z,0.00
2022-08-05T00:52:14.654Z,0.00
2022-08-05T00:54:01.456Z,0.00
2022-08-05T00:54:18.409Z,0.00
2022-08-05T00:55:16.453Z,0.00
2022-08-05T00:56:13.587Z,0.00
2022-08-05T00:57:16.647Z,0.00
2022-08-05T00:58:14.760Z,0.00
2022-08-05T00:59:17.826Z,0.00
2022-08-05T01:00:21.908Z,0.00
2022-08-05T01:01:15.272Z,0.00
2022-08-05T01:02:15.454Z,0.00
2022-08-05T01:03:22.524Z,0.00
2022-08-05T01:04:15.923Z,0.00
2022-08-05T01:05:17.896Z,0.00
2022-08-05T01:06:17.147Z,0.00
2022-08-05T01:07:18.160Z,0.00
2022-08-05T01:08:30.292Z,0.00
2022-08-05T01:09:17.355Z,0.00
2022-08-05T01:10:16.176Z,0.00
2022-08-05T01:11:21.884Z,0.00
2022-08-05T01:12:18.552Z,0.00
2022-08-05T01:13:22.290Z,0.00
2022-08-05T01:14:15.513Z,0.00
2022-08-05T01:15:35.616Z,0.00
2022-08-05T01:16:23.016Z,0.00
2022-08-05T01:17:17.867Z,0.00
2022-08-05T01:18:14.635Z,0.00
2022-08-05T01:19:18.692Z,0.00
2022-08-05T01:20:15.448Z,0.00
2022-08-05T01:21:22.878Z,0.00
2022-08-05T01:22:23.933Z,0.00
2022-08-05T01:23:15.510Z,0.00
2022-08-05T01:24:14.416Z,0.00
2022-08-05T01:25:15.172Z,0.00
2022-08-05T01:26:17.825Z,0.00
2022-08-05T01:27:17.925Z,0.00
2022-08-05T01:28:15.139Z,0.00
2022-08-05T01:29:14.566Z,0.00
2022-08-05T01:30:18.686Z,0.00
2022-08-05T01:31:14.483Z,0.00
2022-08-05T01:32:18.569Z,0.00
2022-08-05T01:33:19.651Z,0.00
2022-08-05T01:34:17.737Z,0.00
2022-08-05T01:35:51.758Z,0.00
2022-08-05T01:36:16.293Z,0.00
2022-08-05T01:37:18.139Z,0.00
2022-08-05T01:38:27.582Z,0.00
2022-08-05T01:39:15.209Z,0.00
2022-08-05T01:40:19.157Z,0.00
2022-08-05T01:41:13.200Z,0.00
2022-08-05T01:42:20.843Z,0.00
2022-08-05T01:43:22.343Z,0.00
2022-08-05T01:44:16.605Z,0.00
2022-08-05T01:45:16.492Z,0.00
2022-08-05T01:46:42.020Z,0.00
2022-08-05T01:47:16.493Z,0.00
2022-08-05T01:48:16.600Z,0.00
2022-08-05T01:49:23.258Z,0.00
2022-08-05T01:50:15.396Z,0.00
2022-08-05T01:51:13.137Z,0.00
2022-08-05T01:52:17.994Z,0.00
2022-08-05T01:53:55.151Z,0.00
2022-08-05T01:54:15.449Z,0.00
2022-08-05T01:55:15.050Z,0.00
2022-08-05T01:58:09.705Z,0.00
2022-08-05T01:58:16.731Z,0.00
2022-08-05T01:58:29.790Z,0.00
2022-08-05T01:59:14.605Z,0.00
2022-08-05T02:00:17.723Z,0.00
2022-08-05T02:01:17.004Z,0.00
2022-08-05T02:02:18.684Z,0.00
2022-08-05T02:03:24.210Z,0.00
2022-08-05T02:04:17.299Z,0.00
2022-08-05T02:05:15.214Z,0.00
2022-08-05T02:06:37.452Z,0.00
2022-08-05T02:07:19.928Z,0.00
2022-08-05T02:08:16.545Z,0.00
2022-08-05T02:09:21.209Z,0.00
2022-08-05T02:10:17.308Z,0.00
2022-08-05T02:11:23.574Z,0.00
2022-08-05T02:12:18.451Z,0.00
2022-08-05T02:13:16.218Z,0.00
2022-08-05T02:14:17.591Z,0.00
2022-08-05T02:15:14.027Z,0.00
2022-08-05T02:16:16.309Z,0.00
2022-08-05T02:17:29.700Z,0.00
2022-08-05T02:18:31.485Z,0.00
2022-08-05T02:19:16.874Z,0.00
2022-08-05T02:20:15.446Z,0.00
2022-08-05T02:21:15.823Z,0.00
2022-08-05T02:22:25.651Z,0.00
2022-08-05T02:23:18.766Z,0.00
2022-08-05T02:24:17.859Z,0.00
2022-08-05T02:25:18.033Z,0.00
2022-08-05T02:26:17.399Z,0.00
2022-08-05T02:27:15.197Z,0.00
2022-08-05T02:28:17.039Z,0.00
2022-08-05T02:29:21.530Z,0.00
2022-08-05T02:30:14.730Z,0.00
2022-08-05T02:31:21.263Z,0.00
2022-08-05T02:32:23.647Z,0.00
2022-08-05T02:33:16.653Z,0.00
2022-08-05T02:34:16.657Z,0.00
2022-08-05T02:35:14.626Z,0.00
2022-08-05T02:36:17.309Z,0.00
2022-08-05T02:37:13.913Z,0.00
2022-08-05T02:38:19.284Z,0.00
2022-08-05T02:39:16.187Z,0.00
2022-08-05T02:40:17.291Z,0.00
2022-08-05T02:41:17.286Z,0.00
2022-08-05T02:42:25.912Z,0.00
2022-08-05T02:43:14.172Z,0.00
2022-08-05T02:44:14.984Z,0.00
2022-08-05T02:45:15.082Z,0.00
2022-08-05T02:46:16.489Z,0.00
2022-08-05T02:47:13.877Z,0.00
2022-08-05T02:48:14.115Z,0.00
2022-08-05T02:49:13.873Z,0.00
2022-08-05T02:50:18.578Z,0.00
2022-08-05T02:51:16.836Z,0.00
2022-08-05T02:52:29.849Z,0.00
2022-08-05T02:53:16.176Z,0.00
2022-08-05T02:54:35.026Z,0.00
2022-08-05T02:55:17.576Z,0.00
2022-08-05T02:56:18.967Z,0.00
2022-08-05T02:58:09.288Z,0.00
2022-08-05T02:58:15.106Z,0.00
2022-08-05T02:59:18.098Z,0.00
2022-08-05T03:00:16.783Z,0.00
2022-08-05T03:01:15.838Z,0.00
2022-08-05T03:02:13.508Z,0.00
2022-08-05T03:03:15.490Z,0.00
2022-08-05T03:04:15.740Z,0.00
2022-08-05T03:05:16.995Z,0.00
2022-08-05T03:06:55.815Z,0.00
2022-08-05T03:07:24.713Z,0.00
2022-08-05T03:08:15.183Z,0.00
2022-08-05T03:09:18.065Z,0.00
2022-08-05T03:10:24.687Z,0.00
2022-08-05T03:11:54.642Z,0.00
2022-08-05T03:12:13.815Z,0.00
2022-08-05T03:13:16.777Z,0.00
2022-08-05T03:14:16.455Z,0.00
2022-08-05T03:15:13.521Z,0.00
2022-08-05T03:16:13.403Z,0.00
2022-08-05T03:17:15.646Z,0.00
2022-08-05T03:18:17.616Z,0.00
2022-08-05T03:19:34.134Z,0.00
2022-08-05T03:20:13.999Z,0.00
2022-08-05T03:21:14.691Z,0.00
2022-08-05T03:22:16.596Z,0.00
2022-08-05T03:23:16.088Z,0.00
2022-08-05T03:24:15.503Z,0.00
2022-08-05T03:25:34.016Z,0.00
2022-08-05T03:26:31.569Z,0.00
2022-08-05T03:27:14.993Z,0.00
2022-08-05T03:28:13.870Z,0.00
2022-08-05T03:29:13.106Z,0.00
2022-08-05T03:30:16.770Z,0.00
2022-08-05T03:31:18.307Z,0.00
2022-08-05T03:32:17.428Z,0.00
2022-08-05T03:33:15.649Z,0.77
2022-08-05T03:34:15.289Z,0.77
2022-08-05T03:35:14.838Z,0.77
2022-08-05T03:36:14.944Z,0.77
2022-08-05T03:37:14.845Z,0.77
2022-08-05T03:38:17.448Z,0.77
2022-08-05T03:39:20.370Z,1.53
2022-08-05T03:40:13.030Z,1.53
2022-08-05T03:41:15.113Z,1.53
2022-08-05T03:42:13.341Z,2.29
2022-08-05T03:43:58.220Z,2.29
2022-08-05T03:44:13.541Z,3.06
2022-08-05T03:45:21.499Z,3.82
2022-08-05T03:46:12.829Z,4.59
2022-08-05T03:47:13.644Z,5.35
2022-08-05T03:48:15.349Z,5.35
2022-08-05T03:49:13.010Z,6.88
2022-08-05T03:50:13.198Z,7.65
2022-08-05T03:52:37.526Z,8.41
2022-08-05T03:52:49.385Z,9.95
2022-08-05T03:55:51.689Z,13.77
2022-08-05T03:56:01.078Z,11.47
2022-08-05T03:56:04.906Z,15.30
2022-08-05T03:56:27.903Z,19.89
2022-08-05T03:57:16.099Z,22.95
2022-08-05T03:58:13.750Z,27.54
2022-08-05T03:59:12.816Z,33.66
2022-08-05T04:00:15.912Z,39.78
2022-08-05T04:01:13.579Z,48.96
2022-08-05T04:02:17.390Z,61.20
2022-08-05T04:03:14.876Z,73.44
2022-08-05T04:04:13.628Z,91.80
2022-08-05T04:05:13.673Z,97.92
2022-08-05T04:06:15.391Z,97.92
2022-08-05T04:07:13.251Z,97.92
2022-08-05T04:08:14.734Z,97.92
2022-08-05T04:09:14.417Z,97.92
2022-08-05T04:10:13.393Z,110.16
2022-08-05T04:11:13.478Z,110.16
2022-08-05T04:12:24.370Z,122.40
2022-08-05T04:13:12.822Z,134.64
2022-08-05T04:14:17.865Z,134.64
2022-08-05T04:15:15.616Z,146.88
2022-08-05T04:16:14.320Z,159.12
2022-08-05T04:17:13.558Z,171.36
2022-08-05T04:18:20.519Z,195.84
2022-08-05T04:19:13.624Z,195.84
2022-08-05T04:20:14.203Z,244.80
2022-08-05T04:21:14.254Z,244.80
2022-08-05T04:22:13.256Z,269.28
2022-08-05T04:23:16.111Z,293.76
2022-08-05T04:24:18.694Z,318.24
2022-08-05T04:25:13.753Z,342.72
2022-08-05T04:26:13.704Z,342.72
2022-08-05T04:27:13.949Z,342.72
2022-08-05T04:28:15.190Z,342.72
2022-08-05T04:29:13.270Z,318.24
2022-08-05T04:30:13.415Z,318.24
2022-08-05T04:31:15.977Z,318.24
2022-08-05T04:32:12.980Z,318.24
2022-08-05T04:33:12.944Z,318.24
2022-08-05T04:34:19.201Z,342.72
2022-08-05T04:35:17.651Z,391.68
2022-08-05T04:36:44.657Z,489.60
2022-08-05T04:37:13.438Z,636.48
2022-08-05T04:38:15.628Z,685.44
2022-08-05T04:39:13.775Z,734.40
2022-08-05T04:40:13.652Z,734.40
2022-08-05T04:41:13.348Z,783.36
2022-08-05T04:42:15.230Z,881.28
2022-08-05T04:43:16.606Z,1077.12
2022-08-05T04:44:12.937Z,1272.96
2022-08-05T04:45:22.838Z,1468.80
2022-08-05T04:46:13.375Z,1566.72
2022-08-05T04:47:18.379Z,1468.80
2022-08-05T04:48:18.398Z,1272.96
2022-08-05T04:49:19.351Z,1077.12
2022-08-05T04:50:12.930Z,979.20
2022-08-05T04:51:13.291Z,1077.12
2022-08-05T04:52:13.521Z,1077.12
2022-08-05T04:53:13.431Z,1175.04
2022-08-05T04:54:12.995Z,1175.04
2022-08-05T04:55:14.254Z,1272.96
2022-08-05T04:56:33.983Z,1468.80
2022-08-05T04:57:13.439Z,1566.72
2022-08-05T04:58:13.323Z,1566.72
2022-08-05T04:59:22.205Z,1468.80
2022-08-05T05:00:14.614Z,1272.96
2022-08-05T05:01:13.815Z,1175.04
2022-08-05T05:02:37.196Z,1077.12
2022-08-05T05:03:13.003Z,1077.12
2022-08-05T05:04:13.825Z,1077.12
2022-08-05T05:05:16.626Z,1077.12
2022-08-05T05:06:40.753Z,979.20
2022-08-05T05:07:15.931Z,979.20
2022-08-05T05:08:14.469Z,979.20
2022-08-05T05:09:14.038Z,979.20
2022-08-05T05:10:15.433Z,881.28
2022-08-05T05:11:15.301Z,881.28
2022-08-05T05:12:15.048Z,979.20
2022-08-05T05:13:13.084Z,1077.12
2022-08-05T05:14:16.120Z,1272.96
2022-08-05T05:15:13.418Z,1468.80
2022-08-05T05:16:13.579Z,1762.56
2022-08-05T05:17:14.865Z,1958.40
2022-08-05T05:18:13.887Z,1762.56
2022-08-05T05:19:18.897Z,1566.72
2022-08-05T05:20:13.771Z,1370.88
2022-08-05T05:21:12.950Z,1175.04
2022-08-05T05:22:24.049Z,1077.12
2022-08-05T05:23:19.932Z,979.20
2022-08-05T05:24:13.132Z,1077.12
2022-08-05T05:25:16.123Z,1077.12
2022-08-05T05:26:13.543Z,979.20
2022-08-05T05:27:13.218Z,783.36
2022-08-05T05:28:13.118Z,685.44
2022-08-05T05:29:14.834Z,685.44
2022-08-05T05:30:29.644Z,636.48
2022-08-05T05:31:13.599Z,538.56
2022-08-05T05:32:15.542Z,587.52
2022-08-05T05:33:17.001Z,734.40
2022-08-05T05:34:15.529Z,783.36
2022-08-05T05:35:13.294Z,979.20
2022-08-05T05:36:13.036Z,1077.12
2022-08-05T05:37:13.759Z,1175.04
2022-08-05T05:38:14.167Z,1272.96
2022-08-05T05:39:13.668Z,1272.96
2022-08-05T05:40:13.364Z,1272.96
2022-08-05T05:41:13.153Z,1370.88
2022-08-05T05:42:13.717Z,1566.72
2022-08-05T05:43:14.038Z,1958.40
2022-08-05T05:44:26.984Z,2154.24
2022-08-05T05:45:14.156Z,1762.56
2022-08-05T05:46:16.085Z,1566.72
2022-08-05T05:47:30.362Z,1762.56
2022-08-05T05:48:16.161Z,1566.72
2022-08-05T05:49:22.602Z,1566.72
2022-08-05T05:50:16.425Z,1370.88
2022-08-05T05:51:15.010Z,1468.80
2022-08-05T05:52:13.386Z,1468.80
2022-08-05T05:53:21.496Z,1566.72
2022-08-05T05:54:12.971Z,1762.56
2022-08-05T05:55:14.806Z,1762.56
2022-08-05T05:56:14.297Z,1762.56
2022-08-05T05:57:19.008Z,1762.56
2022-08-05T05:58:13.352Z,1958.40
2022-08-05T05:59:13.296Z,1958.40
2022-08-05T06:00:13.149Z,1958.40
2022-08-05T06:01:15.338Z,1958.40
2022-08-05T06:02:13.641Z,1958.40
2022-08-05T06:03:40.517Z,1762.56
2022-08-05T06:04:14.871Z,1762.56
2022-08-05T06:05:16.577Z,1566.72
2022-08-05T06:06:13.167Z,1566.72
2022-08-05T06:07:13.075Z,1762.56
2022-08-05T06:08:13.252Z,1762.56
2022-08-05T06:09:17.430Z,1958.40
2022-08-05T06:10:15.544Z,2154.24
2022-08-05T06:11:13.754Z,2350.08
2022-08-05T06:12:13.751Z,2350.08
2022-08-05T06:13:15.383Z,2350.08
2022-08-05T06:14:13.448Z,2350.08
2022-08-05T06:15:23.659Z,2545.92
2022-08-05T06:16:29.147Z,2545.92
2022-08-05T06:17:22.574Z,2545.92
2022-08-05T06:18:13.668Z,2350.08
2022-08-05T06:19:13.459Z,2154.24
2022-08-05T06:20:21.386Z,2154.24
2022-08-05T06:21:16.562Z,2350.08
2022-08-05T06:22:13.871Z,2154.24
2022-08-05T06:23:13.057Z,1958.40
2022-08-05T06:24:14.833Z,1762.56
2022-08-05T06:25:59.408Z,1566.72
2022-08-05T06:26:20.817Z,1468.80
2022-08-05T06:28:08.831Z,1175.04
2022-08-05T06:28:20.901Z,1077.12
2022-08-05T06:29:42.789Z,1370.88
2022-08-05T06:30:17.900Z,2154.24
2022-08-05T06:31:18.064Z,2937.60
2022-08-05T06:32:21.304Z,3133.44
2022-08-05T06:33:19.277Z,3525.12
2022-08-05T06:34:15.801Z,3525.12
2022-08-05T06:35:15.519Z,3133.44
2022-08-05T06:36:15.763Z,2545.92
2022-08-05T06:37:14.797Z,2154.24
2022-08-05T06:38:13.681Z,1958.40
2022-08-05T06:39:15.052Z,2350.08
2022-08-05T06:40:13.658Z,2937.60
2022-08-05T06:41:14.026Z,3525.12
2022-08-05T06:42:14.489Z,4308.48
2022-08-05T06:43:59.755Z,3916.80
2022-08-05T06:44:13.102Z,3133.44
2022-08-05T06:45:21.181Z,2741.76
2022-08-05T06:46:13.890Z,1958.40
2022-08-05T06:47:30.326Z,1762.56
2022-08-05T06:48:53.598Z,1566.72
2022-08-05T06:49:13.734Z,1370.88
2022-08-05T06:50:17.357Z,1272.96
2022-08-05T06:51:25.324Z,1370.88
2022-08-05T06:52:37.290Z,1566.72
2022-08-05T06:53:22.679Z,1762.56
2022-08-05T06:54:18.929Z,2154.24
2022-08-05T06:55:13.375Z,2741.76
2022-08-05T06:56:25.929Z,3525.12
2022-08-05T06:57:56.923Z,3525.12
2022-08-05T06:58:29.747Z,3133.44
2022-08-05T06:59:13.031Z,2350.08
2022-08-05T07:00:12.930Z,1958.40
2022-08-05T07:01:13.353Z,1566.72
2022-08-05T07:02:13.251Z,1566.72
2022-08-05T07:03:12.859Z,1468.80
2022-08-05T07:04:14.065Z,1468.80
2022-08-05T07:05:18.659Z,1370.88
2022-08-05T07:06:14.151Z,1370.88
2022-08-05T07:07:13.431Z,1370.88
2022-08-05T07:08:13.290Z,1175.04
2022-08-05T07:09:13.959Z,979.20
2022-08-05T07:10:14.879Z,979.20
2022-08-05T07:11:15.582Z,881.28
2022-08-05T07:12:13.982Z,979.20
2022-08-05T07:13:13.280Z,1077.12
2022-08-05T07:14:20.001Z,1077.12
2022-08-05T07:15:13.762Z,979.20
2022-08-05T07:17:55.939Z,1175.04
2022-08-05T07:18:07.058Z,1077.12
2022-08-05T07:18:20.414Z,1272.96
2022-08-05T07:19:16.074Z,1175.04
2022-08-05T07:20:34.154Z,1272.96
2022-08-05T07:21:13.148Z,1370.88
2022-08-05T07:22:15.790Z,1468.80
2022-08-05T07:23:13.129Z,1468.80
2022-08-05T07:24:15.256Z,1566.72
2022-08-05T07:25:54.433Z,1762.56
2022-08-05T07:26:15.025Z,1958.40
2022-08-05T07:27:13.488Z,2350.08
2022-08-05T07:28:17.391Z,3133.44
2022-08-05T07:29:13.785Z,3525.12
2022-08-05T07:30:25.372Z,3916.80
2022-08-05T07:31:13.500Z,4308.48
2022-08-05T07:32:15.129Z,4308.48
2022-08-05T07:33:16.812Z,4308.48
2022-08-05T07:34:14.086Z,3133.44
2022-08-05T07:36:03.319Z,3525.12
2022-08-05T07:36:20.676Z,3133.44
2022-08-05T07:37:14.583Z,3133.44
2022-08-05T07:38:32.957Z,3133.44
2022-08-05T07:39:24.692Z,2937.60
2022-08-05T07:40:31.355Z,2545.92
2022-08-05T07:42:07.246Z,2350.08
2022-08-05T07:42:16.155Z,2350.08
2022-08-05T07:43:20.520Z,2154.24
2022-08-05T07:44:18.431Z,2350.08
2022-08-05T07:45:13.530Z,2350.08
2022-08-05T07:46:24.398Z,2545.92
2022-08-05T07:47:14.838Z,2350.08
2022-08-05T07:48:13.110Z,2937.60
2022-08-05T07:49:13.300Z,2937.60
2022-08-05T07:50:16.517Z,2937.60
2022-08-05T07:51:23.863Z,2741.76
2022-08-05T07:52:12.890Z,2350.08
2022-08-05T07:53:13.349Z,2741.76
2022-08-05T07:54:13.828Z,2545.92
2022-08-05T07:55:44.002Z,2545.92
2022-08-05T07:57:02.476Z,2741.76
2022-08-05T07:57:42.080Z,2937.60
2022-08-05T07:58:17.770Z,3133.44
2022-08-05T07:59:13.515Z,2937.60
2022-08-05T08:00:14.901Z,3133.44
2022-08-05T08:01:12.995Z,3525.12
2022-08-05T08:02:17.080Z,3916.80
2022-08-05T08:03:15.627Z,3916.80
2022-08-05T08:04:13.257Z,3916.80
2022-08-05T08:05:14.775Z,3916.80
2022-08-05T08:06:15.296Z,3916.80
2022-08-05T08:07:13.414Z,4308.48
2022-08-05T08:08:16.290Z,4700.16
2022-08-05T08:09:13.395Z,5091.84
2022-08-05T08:10:15.015Z,5483.52
2022-08-05T08:11:15.916Z,5875.20
2022-08-05T08:12:27.467Z,5875.20
2022-08-05T08:13:13.717Z,5483.52
2022-08-05T08:14:18.327Z,5483.52
2022-08-05T08:15:15.107Z,5875.20
2022-08-05T08:16:35.401Z,5875.20
2022-08-05T08:17:15.785Z,5483.52
2022-08-05T08:18:14.369Z,5091.84
2022-08-05T08:20:10.331Z,4308.48
2022-08-05T08:20:42.587Z,4308.48
2022-08-05T08:21:15.983Z,4308.48
2022-08-05T08:22:15.980Z,4308.48
2022-08-05T08:24:02.579Z,4700.16
2022-08-05T08:24:15.061Z,4700.16
2022-08-05T08:25:15.753Z,4308.48
2022-08-05T08:26:13.552Z,3916.80
2022-08-05T08:27:16.556Z,3916.80
2022-08-05T08:28:18.959Z,3525.12
2022-08-05T08:29:29.381Z,3525.12
2022-08-05T08:30:29.765Z,3916.80
2022-08-05T08:31:15.036Z,3916.80
2022-08-05T08:32:13.587Z,3525.12
2022-08-05T08:33:13.818Z,3525.12
2022-08-05T08:34:13.403Z,3525.12
2022-08-05T08:35:13.902Z,3916.80
2022-08-05T08:36:38.967Z,5091.84
2022-08-05T08:37:12.965Z,6266.88
2022-08-05T08:38:16.390Z,6266.88
2022-08-05T08:39:16.410Z,6266.88
2022-08-05T08:40:13.699Z,6266.88
2022-08-05T08:41:14.001Z,5875.20
2022-08-05T08:42:32.714Z,5875.20
2022-08-05T08:45:17.036Z,5483.52
2022-08-05T08:45:20.171Z,5483.52
2022-08-05T08:45:24.841Z,5483.52
2022-08-05T08:46:15.492Z,5483.52
2022-08-05T08:47:47.534Z,5875.20
2022-08-05T08:48:36.070Z,6266.88
2022-08-05T08:50:22.688Z,6266.88
2022-08-05T08:50:31.618Z,6266.88
2022-08-05T08:52:02.020Z,6266.88
2022-08-05T08:52:14.367Z,6266.88
2022-08-05T08:53:13.547Z,6266.88
2022-08-05T08:54:13.774Z,6266.88
2022-08-05T08:55:13.388Z,6266.88
2022-08-05T08:56:13.219Z,6266.88
2022-08-05T08:57:13.716Z,6266.88
2022-08-05T08:58:13.916Z,7050.24
2022-08-05T08:59:19.464Z,7050.24
2022-08-05T09:00:15.613Z,7050.24
2022-08-05T09:01:15.828Z,7050.24
2022-08-05T09:02:13.354Z,7050.24
2022-08-05T09:03:16.099Z,7050.24
2022-08-05T09:04:13.454Z,7050.24
2022-08-05T09:05:16.430Z,7833.60
2022-08-05T09:06:17.193Z,8616.96
2022-08-05T09:07:19.425Z,8616.96
2022-08-05T09:08:13.926Z,7833.60
2022-08-05T09:09:12.948Z,7833.60
2022-08-05T09:10:13.521Z,8616.96
2022-08-05T09:11:13.895Z,8616.96
2022-08-05T09:12:20.797Z,8616.96
2022-08-05T09:13:16.696Z,8616.96
2022-08-05T09:14:57.810Z,7833.60
2022-08-05T09:15:12.983Z,7050.24
2022-08-05T09:16:14.513Z,7050.24
2022-08-05T09:17:39.885Z,7050.24
2022-08-05T09:18:13.327Z,6266.88
2022-08-05T09:19:14.640Z,7050.24
2022-08-05T09:20:36.686Z,7050.24
2022-08-05T09:21:21.138Z,7833.60
2022-08-05T09:22:31.220Z,7833.60
2022-08-05T09:23:18.625Z,8616.96
2022-08-05T09:24:13.116Z,8616.96
2022-08-05T09:25:23.684Z,8616.96
2022-08-05T09:26:15.830Z,7833.60
2022-08-05T09:27:13.182Z,7833.60
2022-08-05T09:28:13.330Z,7833.60
2022-08-05T09:29:18.746Z,7833.60
2022-08-05T09:30:16.337Z,8616.96
2022-08-05T09:31:43.300Z,7833.60
2022-08-05T09:32:41.178Z,7050.24
2022-08-05T09:33:17.051Z,7833.60
2022-08-05T09:34:13.519Z,7833.60
2022-08-05T09:35:26.948Z,7833.60
2022-08-05T09:36:16.238Z,7833.60
2022-08-05T09:37:15.125Z,7833.60
2022-08-05T09:38:18.240Z,8616.96
2022-08-05T09:39:18.307Z,9400.32
2022-08-05T09:40:14.651Z,9400.32
2022-08-05T09:41:16.076Z,8616.96
2022-08-05T09:42:23.080Z,9400.32
2022-08-05T09:43:12.759Z,10967.04
2022-08-05T09:44:13.708Z,12533.76
2022-08-05T09:46:05.286Z,14100.48
2022-08-05T09:46:13.614Z,14100.48
2022-08-05T09:47:15.581Z,14100.48
2022-08-05T09:48:17.830Z,12533.76
2022-08-05T09:49:19.350Z,12533.76
2022-08-05T09:50:13.700Z,14100.48
2022-08-05T09:51:18.615Z,12533.76
2022-08-05T09:52:14.206Z,12533.76
2022-08-05T09:53:22.728Z,12533.76
2022-08-05T09:54:13.531Z,12533.76
2022-08-05T09:55:56.403Z,12533.76
2022-08-05T09:56:13.635Z,12533.76
2022-08-05T09:57:23.130Z,12533.76
2022-08-05T09:58:13.632Z,12533.76
2022-08-05T09:59:16.923Z,11750.40
2022-08-05T10:00:13.617Z,11750.40
2022-08-05T10:01:15.240Z,10967.04
2022-08-05T10:02:13.581Z,10183.68
2022-08-05T10:03:13.779Z,8616.96
2022-08-05T10:04:16.188Z,9400.32
2022-08-05T10:05:13.418Z,9400.32
2022-08-05T10:06:15.807Z,10183.68
2022-08-05T10:07:20.227Z,10967.04
2022-08-05T10:08:37.749Z,9400.32
2022-08-05T10:09:27.667Z,8616.96
2022-08-05T10:10:14.929Z,7833.60
2022-08-05T10:11:13.761Z,7833.60
2022-08-05T10:12:18.916Z,7833.60
2022-08-05T10:13:14.666Z,8616.96
2022-08-05T10:14:13.654Z,7833.60
2022-08-05T10:15:13.703Z,7050.24
2022-08-05T10:16:13.202Z,6266.88
2022-08-05T10:17:14.121Z,5875.20
2022-08-05T10:18:12.859Z,6266.88
2022-08-05T10:19:15.815Z,6266.88
2022-08-05T10:20:12.946Z,6266.88
2022-08-05T10:21:16.328Z,6266.88
2022-08-05T10:22:15.759Z,6266.88
2022-08-05T10:23:34.339Z,5875.20
2022-08-05T10:24:13.851Z,6266.88
2022-08-05T10:25:14.454Z,6266.88
2022-08-05T10:26:14.870Z,6266.88
2022-08-05T10:27:13.449Z,6266.88
2022-08-05T10:28:19.173Z,7050.24
2022-08-05T10:29:13.212Z,7833.60
2022-08-05T10:32:48.227Z,8616.96
2022-08-05T10:32:51.664Z,7050.24
2022-08-05T10:32:55.537Z,7833.60
2022-08-05T10:33:15.072Z,7050.24
2022-08-05T10:34:13.788Z,7050.24
2022-08-05T10:35:13.101Z,7833.60
2022-08-05T10:36:12.975Z,8616.96
2022-08-05T10:37:13.024Z,8616.96
2022-08-05T10:38:13.684Z,9400.32
2022-08-05T10:39:24.053Z,9400.32
2022-08-05T10:40:18.528Z,8616.96
2022-08-05T10:41:13.674Z,7833.60
2022-08-05T10:42:12.949Z,7833.60
2022-08-05T10:43:12.796Z,7833.60
2022-08-05T10:44:13.140Z,8616.96
2022-08-05T10:45:23.252Z,9400.32
2022-08-05T10:46:13.799Z,10967.04
2022-08-05T10:47:25.780Z,12533.76
2022-08-05T10:48:29.421Z,12533.76
2022-08-05T10:49:16.945Z,14100.48
2022-08-05T10:50:20.429Z,14100.48
2022-08-05T10:51:22.375Z,12533.76
2022-08-05T10:52:13.930Z,12533.76
2022-08-05T10:53:12.852Z,11750.40
2022-08-05T10:54:28.713Z,11750.40
2022-08-05T10:55:15.988Z,11750.40
2022-08-05T10:56:21.355Z,8616.96
2022-08-05T10:57:14.544Z,7833.60
2022-08-05T10:58:14.903Z,10967.04
2022-08-05T11:00:02.727Z,12533.76
2022-08-05T11:00:18.477Z,14100.48
2022-08-05T11:01:13.559Z,14100.48
2022-08-05T11:02:38.494Z,14100.48
2022-08-05T11:03:25.731Z,14100.48
2022-08-05T11:04:13.782Z,15667.20
2022-08-05T11:05:13.681Z,15667.20
2022-08-05T11:06:15.032Z,15667.20
2022-08-05T11:07:13.795Z,17233.92
2022-08-05T11:08:33.931Z,15667.20
2022-08-05T11:09:16.566Z,15667.20
2022-08-05T11:10:13.405Z,15667.20
2022-08-05T11:11:16.713Z,15667.20
2022-08-05T11:12:13.181Z,17233.92
2022-08-05T11:13:13.425Z,18800.64
2022-08-05T11:14:14.043Z,18800.64
2022-08-05T11:15:20.755Z,20367.36
2022-08-05T11:16:13.184Z,20367.36
2022-08-05T11:17:59.782Z,21934.08
2022-08-05T11:18:13.563Z,23500.80
2022-08-05T11:20:10.418Z,23500.80
2022-08-05T11:20:18.273Z,28200.96
2022-08-05T11:21:13.554Z,25067.52
2022-08-05T11:22:13.549Z,31334.40
2022-08-05T11:23:13.887Z,75202.56
2022-08-05T11:24:29.831Z,50135.04
2022-08-05T11:25:37.280Z,47001.60
2022-08-05T11:26:14.277Z,75202.56
2022-08-05T11:27:17.396Z,75202.56
2022-08-05T11:28:17.207Z,43868.16
2022-08-05T11:29:17.020Z,31334.40
2022-08-05T11:30:14.478Z,43868.16
2022-08-05T11:31:19.533Z,31334.40
2022-08-05T11:32:14.454Z,28200.96
2022-08-05T11:33:13.777Z,31334.40
2022-08-05T11:34:15.852Z,28200.96
2022-08-05T11:35:15.430Z,68935.68
2022-08-05T11:36:15.168Z,37601.28
2022-08-05T11:38:14.926Z,47001.60
2022-08-05T11:38:26.825Z,28200.96
2022-08-05T11:39:13.900Z,31334.40
2022-08-05T11:40:12.958Z,40734.72
2022-08-05T11:41:58.270Z,34467.84
2022-08-05T11:42:18.584Z,75202.56
2022-08-05T11:43:13.725Z,56401.92
2022-08-05T11:44:40.088Z,50135.04
2022-08-05T11:45:27.037Z,31334.40
2022-08-05T11:46:27.263Z,50135.04
2022-08-05T11:47:19.951Z,56401.92
2022-08-05T11:48:15.437Z,37601.28
2022-08-05T11:49:17.768Z,75202.56
2022-08-05T11:50:15.443Z,56401.92
2022-08-05T11:51:43.776Z,75202.56
2022-08-05T11:52:17.488Z,31334.40
2022-08-05T11:53:17.456Z,34467.84
2022-08-05T11:54:13.933Z,31334.40
2022-08-05T11:55:16.787Z,50135.04
2022-08-05T11:56:16.648Z,47001.60
2022-08-05T11:57:25.867Z,56401.92
2022-08-05T11:58:18.818Z,37601.28
2022-08-05T11:59:21.157Z,37601.28
2022-08-05T12:00:15.105Z,37601.28
2022-08-05T12:01:13.097Z,28200.96
2022-08-05T12:02:30.561Z,31334.40
2022-08-05T12:03:13.654Z,31334.40
2022-08-05T12:04:13.807Z,37601.28
2022-08-05T12:05:18.522Z,34467.84
2022-08-05T12:06:13.818Z,28200.96
2022-08-05T12:07:13.997Z,25067.52
2022-08-05T12:08:18.205Z,31334.40
2022-08-05T12:09:20.117Z,37601.28
2022-08-05T12:10:13.639Z,43868.16
2022-08-05T12:11:17.266Z,56401.92
2022-08-05T12:12:13.641Z,43868.16
2022-08-05T12:13:15.900Z,62668.80
2022-08-05T12:14:12.928Z,68935.68
2022-08-05T12:15:17.031Z,62668.80
2022-08-05T12:16:14.923Z,62668.80
2022-08-05T12:18:00.756Z,62668.80
2022-08-05T12:18:14.053Z,62668.80
2022-08-05T12:20:25.443Z,56401.92
2022-08-05T12:20:25.654Z,62668.80
2022-08-05T12:21:15.375Z,62668.80
2022-08-05T12:22:13.573Z,47001.60
2022-08-05T12:23:13.063Z,23500.80
2022-08-05T12:24:13.108Z,18800.64
2022-08-05T12:25:14.229Z,68935.68
2022-08-05T12:26:13.558Z,68935.68